18 Северо-Васюганская

Карта отелей и гостиниц, располагающихся рядом с аэропортом 18 Северо-Васюганская :

18 Северо-Васюганская Томская область 59° 21' 30.42" N, 78° 21' 37.44" E
18 Северо-Васюганская Томская область 59° 21' 30.42" N, 78° 21' 37.44" E
Код аэродрома ИКАО
UNSW
Код аэродрома RU
УНСВ
Координаты
N59.35845° E078.36040°
Превышение над уровнем моря
80
Основная полоса
04/22
Курс магнитный
035,1/215,1
Длина основной ВПП
78
Ширина основной ВПП
20
Покрытие основной ВПП
Твёрдое
Освещение ВПП
Нет
Тип: 
Вертодром
Класс аэродрома: 
Принадлежность: 
ГА
Статус: 
Действующий
Сайт: 
E-mail аэродрома: 
Страна: 
Россия
Регион: 
Томская область
Город: 
Дополнительная информация: 
Оператор: нет данных. PCN 14/R/B/W/U.

Найти трансфер

С помощью этой формы Вы можете найти трансфер из аэропорта 18 Северо-Васюганская в город, аэропорт или вокзал:

Карта места

Javascript is required to view this map.

Погода в аэропортах:

Авиационная погода в Ботсфьорде

Регион: 
Погода METAR: 
ENBS 060750Z 24032KT 9999 DRSN NSC M09/M13 Q1012
Время наблюдения
2021-12-06T07:50:00Z
Температура C
-9.0
Точка росы
-13.0
Направление ветра
240
Скорость ветра (узлы)
32
Метео видимость
6.21
Явления погоды
DRSN
Условия полета
VFR

Авиационная погода в Киеве

Регион: 
Погода METAR: 
UKKK 060700Z 11003MPS 080V140 1600 1400W R08/1800U BR OVC001 M00/M01 Q1012 TEMPO 1000 -FZRA BR BKN001
Время наблюдения
2021-12-06T07:00:00Z
Температура C
0.0
Точка росы
-1.0
Направление ветра
110
Скорость ветра (узлы)
6
Метео видимость
0.99
Явления погоды
BR
Условия полета
LIFR
Аэропорт подробнее: 

Авиационная погода в Витебске

Регион: 
Погода METAR: 
UMII 060700Z 09003MPS 4900 BR BKN006 BKN012CB M04/M05 Q1013 TEMPO 2000 SHSN BKN005 RMK QBB190
Время наблюдения
2021-12-06T07:00:00Z
Температура C
-4.0
Точка росы
-5.0
Направление ветра
90
Скорость ветра (узлы)
6
Метео видимость
3.04
Явления погоды
BR
Условия полета
IFR

Авиационная погода в Кишинёве

Регион: 
Погода METAR: 
LUKK 060700Z 10005KT 0200 R08/0275N -DZ FG VV001 05/05 Q1008 NOSIG
Время наблюдения
2021-12-06T07:00:00Z
Температура C
5.0
Точка росы
5.0
Направление ветра
100
Скорость ветра (узлы)
5
Метео видимость
0.12
Явления погоды
-DZ FG
Условия полета
LIFR